createdAt,value
2019-02-05T00:02:28.655Z,84.32
2019-02-05T00:05:01.921Z,84.98
2019-02-05T00:07:34.823Z,86.36
2019-02-05T00:10:08.868Z,86.54
2019-02-05T00:12:42.261Z,87.32
2019-02-05T00:15:18.242Z,88.25
2019-02-05T00:17:52.131Z,89.39
2019-02-05T00:20:25.357Z,89.68
2019-02-05T00:22:58.468Z,90.41
2019-02-05T00:25:31.392Z,91.13
2019-02-05T00:28:06.391Z,91.50
2019-02-05T00:30:39.524Z,91.77
2019-02-05T00:33:12.399Z,92.12
2019-02-05T00:35:47.474Z,92.27
2019-02-05T00:38:20.367Z,92.46
2019-02-05T00:40:53.570Z,92.65
2019-02-05T00:43:27.107Z,92.99
2019-02-05T00:45:59.911Z,92.91
2019-02-05T00:48:32.769Z,92.67
2019-02-05T00:51:07.493Z,92.47
2019-02-05T00:53:43.505Z,92.36
2019-02-05T00:56:17.855Z,92.37
2019-02-05T00:58:51.664Z,92.23
2019-02-05T01:01:26.055Z,92.25
2019-02-05T01:03:59.616Z,92.20
2019-02-05T01:06:33.097Z,92.11
2019-02-05T01:09:08.999Z,92.21
2019-02-05T01:11:43.513Z,92.35
2019-02-05T01:14:16.671Z,92.71
2019-02-05T01:16:49.748Z,92.82
2019-02-05T01:19:22.596Z,92.92
2019-02-05T01:21:57.223Z,93.31
2019-02-05T01:24:31.040Z,93.37
2019-02-05T01:27:03.949Z,93.51
2019-02-05T01:29:38.180Z,93.84
2019-02-05T01:32:10.882Z,94.02
2019-02-05T01:34:44.022Z,94.02
2019-02-05T01:37:17.244Z,94.14
2019-02-05T01:39:50.033Z,94.58
2019-02-05T01:42:22.820Z,95.20
2019-02-05T01:44:57.001Z,95.45
2019-02-05T01:47:30.858Z,95.79
2019-02-05T01:50:05.773Z,96.16
2019-02-05T01:52:39.453Z,96.29
2019-02-05T01:55:13.667Z,96.50
2019-02-05T01:57:48.575Z,96.66
2019-02-05T02:00:30.650Z,96.81
2019-02-05T02:03:04.672Z,97.17
2019-02-05T02:05:37.480Z,97.35
2019-02-05T02:08:10.719Z,97.59
2019-02-05T02:10:43.523Z,97.77
2019-02-05T02:13:16.632Z,97.99
2019-02-05T02:15:56.196Z,97.91
2019-02-05T02:18:28.952Z,97.91
2019-02-05T02:21:02.985Z,98.20
2019-02-05T02:23:36.357Z,98.63
2019-02-05T02:26:09.030Z,98.86
2019-02-05T02:28:42.415Z,99.01
2019-02-05T02:31:15.539Z,99.29
2019-02-05T02:33:48.626Z,99.52
2019-02-05T02:36:21.253Z,99.69
2019-02-05T02:38:54.380Z,99.90
2019-02-05T02:41:27.463Z,100.00
2019-02-05T02:44:00.262Z,100.00
2019-02-05T02:46:33.244Z,100.00
2019-02-05T02:49:06.879Z,100.00
2019-02-05T02:51:39.685Z,100.00
2019-02-05T02:54:12.825Z,100.00
2019-02-05T02:56:45.367Z,100.00
2019-02-05T02:59:19.175Z,100.00
2019-02-05T03:01:52.587Z,100.00
2019-02-05T03:04:25.867Z,100.00
2019-02-05T03:06:58.629Z,100.00
2019-02-05T03:09:32.043Z,100.00
2019-02-05T03:12:05.035Z,100.00
2019-02-05T03:14:37.818Z,100.00
2019-02-05T03:17:12.376Z,100.00
2019-02-05T03:19:45.813Z,100.00
2019-02-05T03:22:18.545Z,100.00
2019-02-05T03:24:51.781Z,100.00
2019-02-05T03:27:24.352Z,100.00
2019-02-05T03:29:57.360Z,100.00
2019-02-05T03:32:30.553Z,100.00
2019-02-05T03:35:04.474Z,100.00
2019-02-05T03:37:37.120Z,100.00
2019-02-05T03:41:02.177Z,100.00
2019-02-05T03:43:37.547Z,100.00
2019-02-05T03:46:14.469Z,100.00
2019-02-05T03:48:50.507Z,100.00
2019-02-05T03:51:55.555Z,100.00
2019-02-05T03:55:16.218Z,100.00
2019-02-05T03:58:25.241Z,100.00
2019-02-05T04:01:29.788Z,100.00
2019-02-05T04:04:51.861Z,100.00
2019-02-05T04:08:37.402Z,100.00
2019-02-05T04:12:08.066Z,100.00
2019-02-05T04:15:45.878Z,100.00
2019-02-05T04:18:51.226Z,100.00
2019-02-05T04:21:50.113Z,100.00
2019-02-05T04:25:22.940Z,100.00
2019-02-05T04:29:11.916Z,100.00
2019-02-05T04:32:23.318Z,100.00
2019-02-05T04:35:29.951Z,100.00
2019-02-05T04:38:31.788Z,100.00
2019-02-05T04:41:32.222Z,100.00
2019-02-05T04:44:37.353Z,100.00
2019-02-05T04:47:40.525Z,100.00
2019-02-05T04:50:43.797Z,100.00
2019-02-05T04:53:57.095Z,100.00
2019-02-05T04:57:26.602Z,100.00
2019-02-05T05:01:17.115Z,100.00
2019-02-05T05:04:28.903Z,100.00
2019-02-05T05:07:38.924Z,100.00
2019-02-05T05:10:13.456Z,100.00
2019-02-05T05:12:47.092Z,100.00
2019-02-05T05:15:20.430Z,100.00
2019-02-05T05:17:53.069Z,100.00
2019-02-05T05:20:26.539Z,100.00
2019-02-05T05:22:59.446Z,100.00
2019-02-05T05:25:34.601Z,100.00
2019-02-05T05:28:10.568Z,100.00
2019-02-05T05:30:44.409Z,100.00
2019-02-05T05:33:19.111Z,100.00
2019-02-05T05:35:52.643Z,100.00
2019-02-05T05:38:25.549Z,100.00
2019-02-05T05:40:59.508Z,100.00
2019-02-05T05:43:33.081Z,100.00
2019-02-05T05:46:06.112Z,100.00
2019-02-05T05:48:42.063Z,100.00
2019-02-05T05:51:14.758Z,100.00
2019-02-05T05:53:47.815Z,100.00
2019-02-05T05:56:23.593Z,100.00
2019-02-05T05:58:56.241Z,100.00
2019-02-05T06:01:29.141Z,100.00
2019-02-05T06:04:02.207Z,100.00
2019-02-05T06:06:34.989Z,100.00
2019-02-05T06:09:10.051Z,100.00
2019-02-05T06:11:44.122Z,100.00
2019-02-05T06:14:17.769Z,100.00
2019-02-05T06:16:51.047Z,100.00
2019-02-05T06:19:23.783Z,100.00
2019-02-05T06:21:57.603Z,100.00
2019-02-05T06:24:31.362Z,100.00
2019-02-05T06:27:05.060Z,100.00
2019-02-05T06:29:37.792Z,100.00
2019-02-05T06:32:12.229Z,100.00
2019-02-05T06:34:45.023Z,100.00
2019-02-05T06:37:20.364Z,100.00
2019-02-05T06:39:53.362Z,100.00
2019-02-05T06:42:26.780Z,100.00
2019-02-05T06:45:05.912Z,100.00
2019-02-05T06:47:39.363Z,100.00
2019-02-05T06:50:12.811Z,100.00
2019-02-05T06:52:47.270Z,100.00
2019-02-05T06:55:20.689Z,100.00
2019-02-05T06:57:53.367Z,100.00
2019-02-05T07:00:26.835Z,100.00
2019-02-05T07:03:00.709Z,100.00
2019-02-05T07:05:37.024Z,100.00
2019-02-05T07:08:14.555Z,100.00
2019-02-05T07:10:50.829Z,100.00
2019-02-05T07:13:27.024Z,100.00
2019-02-05T07:16:02.328Z,100.00
2019-02-05T07:18:38.074Z,100.00
2019-02-05T07:21:16.483Z,100.00
2019-02-05T07:23:54.938Z,100.00
2019-02-05T07:26:33.498Z,100.00
2019-02-05T07:29:08.398Z,100.00
2019-02-05T07:31:45.362Z,100.00
2019-02-05T07:34:21.317Z,100.00
2019-02-05T07:36:56.600Z,100.00
2019-02-05T07:39:32.467Z,100.00
2019-02-05T07:42:08.683Z,100.00
2019-02-05T07:44:43.450Z,100.00
2019-02-05T07:47:18.426Z,100.00
2019-02-05T07:49:53.002Z,100.00
2019-02-05T07:52:28.506Z,100.00
2019-02-05T07:55:04.977Z,100.00
2019-02-05T07:57:39.897Z,100.00
2019-02-05T08:00:28.777Z,100.00
2019-02-05T08:03:08.001Z,100.00
2019-02-05T08:05:45.968Z,100.00
2019-02-05T08:08:21.010Z,100.00
2019-02-05T08:10:57.061Z,100.00
2019-02-05T08:13:31.873Z,100.00
2019-02-05T08:16:08.305Z,100.00
2019-02-05T08:18:45.827Z,100.00
2019-02-05T08:21:23.495Z,100.00
2019-02-05T08:23:58.498Z,100.00
2019-02-05T08:26:36.340Z,100.00
2019-02-05T08:29:21.722Z,100.00
2019-02-05T08:31:58.536Z,100.00
2019-02-05T08:34:35.448Z,100.00
2019-02-05T08:37:14.184Z,100.00
2019-02-05T08:39:49.789Z,100.00
2019-02-05T08:42:24.600Z,100.00
2019-02-05T08:45:03.815Z,100.00
2019-02-05T08:47:39.727Z,100.00
2019-02-05T08:50:21.158Z,100.00
2019-02-05T08:52:57.779Z,100.00
2019-02-05T08:55:32.498Z,100.00
2019-02-05T08:58:11.020Z,100.00
2019-02-05T09:00:46.902Z,100.00
2019-02-05T09:03:21.753Z,100.00
2019-02-05T09:05:56.892Z,100.00
2019-02-05T09:08:33.649Z,100.00
2019-02-05T09:11:09.547Z,100.00
2019-02-05T09:13:44.973Z,100.00
2019-02-05T09:16:20.606Z,100.00
2019-02-05T09:18:55.770Z,100.00
2019-02-05T09:21:30.436Z,100.00
2019-02-05T09:24:05.553Z,100.00
2019-02-05T09:26:42.486Z,100.00
2019-02-05T09:29:17.235Z,100.00
2019-02-05T09:31:52.276Z,100.00
2019-02-05T09:34:30.335Z,100.00
2019-02-05T09:37:06.148Z,100.00
2019-02-05T09:39:42.673Z,100.00
2019-02-05T09:42:18.746Z,100.00
2019-02-05T09:44:53.576Z,100.00
2019-02-05T09:47:29.547Z,100.00
2019-02-05T09:50:06.766Z,100.00
2019-02-05T09:52:41.911Z,100.00
2019-02-05T09:55:20.996Z,100.00
2019-02-05T09:57:56.666Z,100.00
2019-02-05T10:00:36.775Z,100.00
2019-02-05T10:03:11.739Z,100.00
2019-02-05T10:05:54.201Z,100.00
2019-02-05T10:08:29.848Z,100.00
2019-02-05T10:11:05.573Z,100.00
2019-02-05T10:13:43.137Z,100.00
2019-02-05T10:16:18.986Z,100.00
2019-02-05T10:18:55.187Z,100.00
2019-02-05T10:21:31.825Z,100.00
2019-02-05T10:24:07.534Z,100.00
2019-02-05T10:26:47.822Z,100.00
2019-02-05T10:29:26.069Z,100.00
2019-02-05T10:32:02.265Z,99.99
2019-02-05T10:34:37.639Z,99.85
2019-02-05T10:37:12.416Z,99.84
2019-02-05T10:39:47.296Z,99.83
2019-02-05T10:42:27.110Z,99.93
2019-02-05T10:45:05.836Z,100.00
2019-02-05T10:47:42.820Z,100.00
2019-02-05T10:50:21.934Z,100.00
2019-02-05T10:53:01.132Z,100.00
2019-02-05T10:55:38.978Z,99.91
2019-02-05T10:58:14.210Z,99.89
2019-02-05T11:00:52.774Z,99.77
2019-02-05T11:03:27.545Z,99.59
2019-02-05T11:06:04.636Z,99.59
2019-02-05T11:08:42.461Z,99.40
2019-02-05T11:11:17.616Z,99.52
2019-02-05T11:13:52.559Z,99.27
2019-02-05T11:16:27.450Z,98.86
2019-02-05T11:19:12.034Z,98.77
2019-02-05T11:21:48.891Z,98.85
2019-02-05T11:24:24.642Z,98.73
2019-02-05T11:27:00.567Z,98.67
2019-02-05T11:29:35.544Z,98.59
2019-02-05T11:32:11.750Z,98.51
2019-02-05T11:34:47.539Z,98.64
2019-02-05T11:37:23.535Z,98.68
2019-02-05T11:39:59.396Z,98.44
2019-02-05T11:42:35.441Z,98.30
2019-02-05T11:45:19.033Z,98.53
2019-02-05T11:47:56.586Z,98.56
2019-02-05T11:50:36.184Z,98.60
2019-02-05T11:53:12.025Z,98.63
2019-02-05T11:55:49.261Z,98.84
2019-02-05T11:58:24.742Z,98.85
2019-02-05T12:01:07.856Z,98.88
2019-02-05T12:03:42.799Z,98.59
2019-02-05T12:06:18.696Z,98.60
2019-02-05T12:08:56.173Z,98.66
2019-02-05T12:11:31.407Z,98.49
2019-02-05T12:14:07.303Z,98.34
2019-02-05T12:16:42.920Z,98.43
2019-02-05T12:19:18.675Z,98.51
2019-02-05T12:21:55.971Z,98.46
2019-02-05T12:24:30.793Z,98.34
2019-02-05T12:27:11.797Z,98.22
2019-02-05T12:29:46.610Z,98.41
2019-02-05T12:32:24.097Z,98.51
2019-02-05T12:34:58.849Z,98.60
2019-02-05T12:37:35.779Z,98.67
2019-02-05T12:40:16.189Z,98.70
2019-02-05T12:42:54.257Z,98.77
2019-02-05T12:45:34.239Z,98.98
2019-02-05T12:48:10.810Z,99.03
2019-02-05T12:50:50.901Z,99.23
2019-02-05T12:53:29.807Z,99.25
2019-02-05T12:56:07.710Z,99.29
2019-02-05T12:58:45.133Z,99.20
2019-02-05T13:01:22.848Z,98.93
2019-02-05T13:03:58.407Z,98.82
2019-02-05T13:06:33.562Z,98.88
2019-02-05T13:09:12.097Z,99.13
2019-02-05T13:11:47.627Z,99.25
2019-02-05T13:14:22.672Z,99.44
2019-02-05T13:17:07.547Z,99.26
2019-02-05T13:19:53.364Z,98.95
2019-02-05T13:22:28.174Z,99.13
2019-02-05T13:25:06.623Z,99.12
2019-02-05T13:27:47.043Z,99.00
2019-02-05T13:30:26.528Z,98.91
2019-02-05T13:33:06.337Z,98.71
2019-02-05T13:35:45.414Z,98.73
2019-02-05T13:38:21.425Z,98.80
2019-02-05T13:40:56.815Z,98.74
2019-02-05T13:43:41.504Z,98.45
2019-02-05T13:46:26.923Z,98.22
2019-02-05T13:49:11.564Z,98.13
2019-02-05T13:52:01.023Z,97.94
2019-02-05T13:54:43.475Z,97.79
2019-02-05T13:57:28.324Z,97.69
2019-02-05T14:00:17.257Z,97.62
2019-02-05T14:02:54.357Z,97.50
2019-02-05T14:05:31.716Z,97.44
2019-02-05T14:08:09.864Z,97.42
2019-02-05T14:10:47.813Z,97.22
2019-02-05T14:13:23.984Z,97.39
2019-02-05T14:15:59.998Z,97.18
2019-02-05T14:18:36.748Z,97.12
2019-02-05T14:21:13.643Z,96.93
2019-02-05T14:23:50.379Z,96.76
2019-02-05T14:26:25.863Z,96.61
2019-02-05T14:29:01.793Z,96.64
2019-02-05T14:31:36.526Z,96.66
2019-02-05T14:34:15.820Z,96.78
2019-02-05T14:36:51.761Z,96.88
2019-02-05T14:39:31.809Z,96.91
2019-02-05T14:42:14.416Z,96.93
2019-02-05T14:44:50.861Z,96.66
2019-02-05T14:47:25.758Z,96.70
2019-02-05T14:50:01.807Z,96.78
2019-02-05T14:52:38.836Z,96.85
2019-02-05T14:55:15.543Z,96.86
2019-02-05T14:57:50.543Z,96.83
2019-02-05T15:00:51.952Z,96.95
2019-02-05T15:03:27.262Z,97.00
2019-02-05T15:06:04.082Z,97.01
2019-02-05T15:08:40.163Z,96.91
2019-02-05T15:11:16.569Z,96.74
2019-02-05T15:13:53.142Z,96.59
2019-02-05T15:16:28.034Z,96.42
2019-02-05T15:19:06.378Z,96.30
2019-02-05T15:21:43.600Z,96.23
2019-02-05T15:24:24.479Z,96.21
2019-02-05T15:27:00.478Z,95.96
2019-02-05T15:29:45.794Z,95.74
2019-02-05T15:32:26.643Z,95.63
2019-02-05T15:35:02.476Z,95.62
2019-02-05T15:37:38.726Z,95.56
2019-02-05T15:40:16.890Z,95.61
2019-02-05T15:42:53.932Z,95.53
2019-02-05T15:45:31.930Z,95.37
2019-02-05T15:48:08.119Z,95.30
2019-02-05T15:50:43.533Z,95.20
2019-02-05T15:53:20.099Z,95.21
2019-02-05T15:55:56.494Z,95.25
2019-02-05T15:58:33.080Z,95.24
2019-02-05T16:01:21.174Z,95.33
2019-02-05T16:03:58.548Z,95.42
2019-02-05T16:06:36.500Z,95.43
2019-02-05T16:09:12.522Z,95.46
2019-02-05T16:11:49.543Z,95.63
2019-02-05T16:14:29.292Z,95.75
2019-02-05T16:17:09.565Z,95.87
2019-02-05T16:19:46.660Z,95.96
2019-02-05T16:22:24.973Z,96.02
2019-02-05T16:25:02.470Z,96.06
2019-02-05T16:27:42.375Z,96.14
2019-02-05T16:30:21.544Z,96.16
2019-02-05T16:32:57.612Z,96.19
2019-02-05T16:35:33.562Z,96.25
2019-02-05T16:38:09.394Z,96.27
2019-02-05T16:40:45.369Z,96.24
2019-02-05T16:43:21.415Z,96.30
2019-02-05T16:46:00.222Z,96.31
2019-02-05T16:48:37.952Z,96.36
2019-02-05T16:51:13.588Z,96.36
2019-02-05T16:53:50.614Z,96.34
2019-02-05T16:56:25.500Z,96.33
2019-02-05T16:59:01.931Z,96.33
2019-02-05T17:01:37.635Z,96.44
2019-02-05T17:04:15.618Z,96.59
2019-02-05T17:06:54.729Z,96.64
2019-02-05T17:09:32.512Z,96.64
2019-02-05T17:12:07.831Z,96.67
2019-02-05T17:14:43.789Z,96.64
2019-02-05T17:17:20.852Z,96.66
2019-02-05T17:19:59.632Z,96.67
2019-02-05T17:22:36.607Z,96.64
2019-02-05T17:25:15.545Z,96.69
2019-02-05T17:27:51.292Z,96.73
2019-02-05T17:30:31.796Z,96.71
2019-02-05T17:33:07.388Z,96.75
2019-02-05T17:35:45.567Z,96.75
2019-02-05T17:38:21.171Z,96.81
2019-02-05T17:40:56.382Z,96.91
2019-02-05T17:43:33.270Z,96.94
2019-02-05T17:46:10.015Z,96.99
2019-02-05T17:48:46.733Z,96.99
2019-02-05T17:51:25.280Z,96.94
2019-02-05T17:53:59.158Z,96.91
2019-02-05T17:56:35.810Z,96.88
2019-02-05T17:59:10.463Z,96.83
2019-02-05T18:01:44.324Z,96.81
2019-02-05T18:04:23.464Z,96.76
2019-02-05T18:06:58.012Z,96.72
2019-02-05T18:09:36.186Z,96.68
2019-02-05T18:12:11.705Z,96.68
2019-02-05T18:14:48.287Z,96.89
2019-02-05T18:17:25.926Z,97.13
2019-02-05T18:20:02.611Z,97.35
2019-02-05T18:22:39.546Z,97.51
2019-02-05T18:25:18.267Z,97.53
2019-02-05T18:27:55.336Z,97.60
2019-02-05T18:30:32.516Z,97.65
2019-02-05T18:33:08.418Z,97.66
2019-02-05T18:35:45.517Z,97.70
2019-02-05T18:38:22.112Z,97.75
2019-02-05T18:40:58.099Z,97.67
2019-02-05T18:43:38.756Z,97.62
2019-02-05T18:46:14.260Z,97.60
2019-02-05T18:49:04.657Z,97.43
2019-02-05T18:51:43.848Z,97.28
2019-02-05T18:54:22.286Z,97.15
2019-02-05T18:57:00.399Z,96.96
2019-02-05T18:59:34.827Z,96.71
2019-02-05T19:02:11.394Z,96.31
2019-02-05T19:04:48.438Z,95.97
2019-02-05T19:07:27.898Z,95.75
2019-02-05T19:10:04.019Z,95.49
2019-02-05T19:12:40.461Z,95.51
2019-02-05T19:15:26.229Z,95.55
2019-02-05T19:18:04.841Z,95.59
2019-02-05T19:20:43.811Z,96.02
2019-02-05T19:23:20.483Z,96.21
2019-02-05T19:26:08.582Z,96.44
2019-02-05T19:28:46.024Z,96.61
2019-02-05T19:31:36.336Z,96.74
2019-02-05T19:34:13.965Z,96.92
2019-02-05T19:36:51.871Z,97.14
2019-02-05T19:39:32.010Z,97.52
2019-02-05T19:42:13.602Z,97.75
2019-02-05T19:45:03.684Z,98.04
2019-02-05T19:47:39.405Z,98.01
2019-02-05T19:50:16.701Z,97.94
2019-02-05T19:52:51.355Z,98.15
2019-02-05T19:55:26.468Z,98.17
2019-02-05T19:58:02.372Z,98.29
2019-02-05T20:00:41.221Z,98.39
2019-02-05T20:03:16.155Z,98.43
2019-02-05T20:05:51.321Z,98.58
2019-02-05T20:08:29.401Z,98.57
2019-02-05T20:11:06.675Z,98.44
2019-02-05T20:13:41.672Z,98.24
2019-02-05T20:16:19.960Z,98.22
2019-02-05T20:21:48.276Z,98.01
2019-02-05T20:24:23.008Z,97.97
2019-02-05T20:27:01.643Z,98.03
2019-02-05T20:29:37.948Z,98.17
2019-02-05T20:32:14.610Z,98.20
2019-02-05T20:34:50.862Z,98.28
2019-02-05T20:37:28.945Z,98.52
2019-02-05T20:40:12.370Z,98.49
2019-02-05T20:42:48.973Z,98.55
2019-02-05T20:45:27.452Z,98.59
2019-02-05T20:48:06.571Z,98.62
2019-02-05T20:50:44.122Z,98.87
2019-02-05T20:53:24.581Z,99.04
2019-02-05T20:56:05.799Z,98.97
2019-02-05T20:58:46.492Z,98.91
2019-02-05T21:01:20.439Z,98.92
2019-02-05T21:04:01.141Z,98.92
2019-02-05T21:06:39.169Z,99.10
2019-02-05T21:09:20.649Z,99.07
2019-02-05T21:11:54.179Z,99.00
2019-02-05T21:14:28.153Z,99.01
2019-02-05T21:17:01.522Z,98.99
2019-02-05T21:19:37.721Z,99.07
2019-02-05T21:22:12.770Z,99.12
2019-02-05T21:24:49.747Z,99.20
2019-02-05T21:27:23.160Z,99.33
2019-02-05T21:29:56.810Z,99.34
2019-02-05T21:32:32.766Z,99.31
2019-02-05T21:35:10.442Z,99.44
2019-02-05T21:37:44.356Z,99.50
2019-02-05T21:40:20.612Z,99.42
2019-02-05T21:42:54.415Z,99.51
2019-02-05T21:45:27.410Z,99.59
2019-02-05T21:48:01.832Z,99.53
2019-02-05T21:50:35.806Z,99.64
2019-02-05T21:53:09.371Z,99.70
2019-02-05T21:55:46.436Z,99.79
2019-02-05T21:58:19.210Z,99.84
2019-02-05T22:00:54.389Z,99.91
2019-02-05T22:03:29.432Z,99.98
2019-02-05T22:06:02.418Z,100.00
2019-02-05T22:08:35.429Z,100.00
2019-02-05T22:11:08.645Z,100.00
2019-02-05T22:13:42.783Z,100.00
2019-02-05T22:16:19.544Z,100.00
2019-02-05T22:18:54.508Z,99.83
2019-02-05T22:21:28.075Z,99.61
2019-02-05T22:24:04.131Z,99.43
2019-02-05T22:26:37.484Z,99.22
2019-02-05T22:29:13.460Z,98.97
2019-02-05T22:31:46.933Z,98.68
2019-02-05T22:34:20.631Z,98.48
2019-02-05T22:36:55.462Z,98.26
2019-02-05T22:39:28.248Z,97.83
2019-02-05T22:42:02.223Z,97.32
2019-02-05T22:44:39.936Z,96.92
2019-02-05T22:47:13.475Z,96.43
2019-02-05T22:49:47.877Z,96.27
2019-02-05T22:52:25.891Z,96.05
2019-02-05T22:54:58.948Z,95.83
2019-02-05T22:57:31.886Z,95.83
2019-02-05T23:00:50.534Z,95.67
2019-02-05T23:03:36.612Z,95.29
2019-02-05T23:07:00.878Z,94.90
2019-02-05T23:10:42.787Z,94.69
2019-02-05T23:13:27.517Z,94.25
2019-02-05T23:16:00.530Z,93.85
2019-02-05T23:18:34.007Z,93.57
2019-02-05T23:21:10.602Z,93.24
2019-02-05T23:23:43.485Z,92.77
2019-02-05T23:26:16.386Z,92.67
2019-02-05T23:28:49.631Z,92.55
2019-02-05T23:31:24.342Z,92.50
2019-02-05T23:33:57.176Z,92.49
2019-02-05T23:36:30.724Z,92.52
2019-02-05T23:39:05.808Z,92.27
2019-02-05T23:41:41.466Z,92.01
2019-02-05T23:44:14.698Z,91.75
2019-02-05T23:46:47.639Z,91.78
2019-02-05T23:49:20.803Z,91.61
2019-02-05T23:51:54.960Z,91.28
2019-02-05T23:54:28.806Z,90.95
2019-02-05T23:57:01.595Z,90.74
2019-02-05T23:59:34.950Z,91.01
